Flight Track Log - Related Links

Times and Time Zones

All times are in EDT time to prevent confusion due to time zone crossing. See the POE258 flight status page for this flight to view local times or setup timezone preferences in your user account.

Time Position Orientation Groundspeed Altitude Reporting Facility
EDT Latitude Longitude Course Direction KTS MPH feet Rate Location/Type
Thu 01:13:40 PM 45.3333 -75.6667 218° Southwest 150 173 1,900  Level Toronto Center
Thu 01:14:31 PM 45.3333 -75.7500 270° West 160 184 4,500 2,595 Climbing Montreal Center
Thu 01:15:31 PM 45.3167 -75.8000 245° Southwest 220 253 6,700 1,850 Climbing Montreal Center
Thu 01:16:31 PM 45.2500 -75.8500 208° Southwest 270 311 8,200 1,750 Climbing Montreal Center
Thu 01:17:31 PM 45.1833 -75.9167 215° Southwest 290 334 10,200 1,950 Climbing Montreal Center
Thu 01:18:00 PM 45.0593 -75.9675 218° Southwest  Level FlightAware Approximate
Thu 01:18:31 PM 45.1167 -76.0000 221° Southwest 300 345 12,100  Level Montreal Center
Thu 01:19:31 PM 45.0500 -76.0667 215° Southwest 300 345 14,100 1,900 Climbing Montreal Center
Thu 01:20:31 PM 45.0000 -76.1500 230° Southwest 300 345 15,900 1,700 Climbing Montreal Center
Thu 01:21:31 PM 44.9333 -76.2333 222° Southwest 300 345 17,500 1,350 Climbing Montreal Center
Thu 01:22:31 PM 44.8667 -76.3000 215° Southwest 310 357 18,600 1,050 Climbing Montreal Center
Thu 01:23:31 PM 44.8000 -76.4000 227° Southwest 310 357 19,600 1,100 Climbing Montreal Center
Thu 01:24:31 PM 44.7333 -76.4667 215° Southwest 320 368 20,800 1,150 Climbing Montreal Center
Thu 01:25:31 PM 44.6667 -76.5333 215° Southwest 310 357 21,900 600 Climbing Montreal Center
Thu 01:26:31 PM 44.6000 -76.6333 227° Southwest 320 368 22,000 50 Climbing Montreal Center
Thu 01:27:31 PM 44.5167 -76.7000 210° Southwest 340 391 22,000  Level Montreal Center
Thu 01:28:31 PM 44.4500 -76.7833 222° Southwest 350 403 22,000  Level Montreal Center
Thu 01:29:31 PM 44.3667 -76.8833 221° Southwest 360 414 22,000  Level Montreal Center
Thu 01:30:31 PM 44.2833 -76.9667 216° Southwest 360 414 22,000  Level Montreal Center
Thu 01:31:31 PM 44.2167 -77.0667 227° Southwest 360 414 22,000  Level Montreal Center
Thu 01:32:31 PM 44.1333 -77.1500 216° Southwest 360 414 22,000  Level Montreal Center
Thu 01:33:31 PM 44.0667 -77.2500 227° Southwest 360 414 22,000  Level Montreal Center
Thu 01:34:31 PM 43.9833 -77.3167 210° Southwest 360 414 22,000  Level Montreal Center
Thu 01:35:31 PM 43.9333 -77.4333 239° Southwest 340 391 22,000  Level Montreal Center
Thu 01:36:31 PM 43.9000 -77.5500 248° West 320 368 22,000  Level Montreal Center
Thu 01:37:31 PM 43.8667 -77.6667 248° West 310 357 22,000 -400 Level Montreal Center
Thu 01:38:31 PM 43.8333 -77.7833 248° West 320 368 21,200 -750 Descending Montreal Center
Thu 01:39:31 PM 43.8167 -77.8833 257° West 320 368 20,500 -900 Descending Montreal Center
Thu 01:40:31 PM 43.7833 -78.0000 248° West 310 357 19,400 -1,550 Descending Montreal Center
Thu 01:41:31 PM 43.7667 -78.1167 259° West 320 368 17,400 -2,000 Descending Montreal Center
Thu 01:42:31 PM 43.7333 -78.2333 248° West 330 380 15,400 -2,000 Descending Montreal Center
Thu 01:43:31 PM 43.7167 -78.3500 259° West 320 368 13,400 -1,700 Descending Montreal Center
Thu 01:44:31 PM 43.6833 -78.4667 248° West 310 357 12,000 -1,400 Descending Montreal Center
Thu 01:45:31 PM 43.6833 -78.6000 270° West 300 345 10,600 -1,350 Descending Montreal Center
Thu 01:46:31 PM 43.6833 -78.7000 270° West 290 334 9,300 -1,256 Descending Montreal Center
Thu 01:47:40 PM 43.6667 -78.7833 255° West 280 322 7,900 -1,256 Descending Toronto Center
Thu 01:48:40 PM 43.6667 -78.9000 270° West 260 299 6,600 -1,100 Descending Toronto Center
Thu 01:49:40 PM 43.6500 -78.9833 255° West 250 288 5,700 -950 Descending Toronto Center
Thu 01:50:40 PM 43.6500 -79.0833 270° West 250 288 4,700 -1,000 Descending Toronto Center
Thu 01:51:40 PM 43.6333 -79.1667 255° West 240 276 3,700 -1,150 Descending Toronto Center
Thu 01:52:40 PM 43.6333 -79.2333 270° West 210 242 2,400 -1,150 Descending Toronto Center
Thu 01:53:40 PM 43.6333 -79.3167 270° West 170 196 1,400 -850 Descending Toronto Center
Thu 01:54:40 PM 43.6333 -79.3500 270° West 110 127 700 -700 Descending Toronto Center

Login

Don't have an account? Register now (free) for customized features, flight alerts, and more!